createdAt,value
2018-09-26T00:01:02.393Z,99.90
2018-09-26T00:03:37.306Z,99.90
2018-09-26T00:06:06.158Z,99.90
2018-09-26T00:08:35.072Z,99.90
2018-09-26T00:11:04.133Z,99.90
2018-09-26T00:13:32.936Z,99.90
2018-09-26T00:16:01.987Z,99.90
2018-09-26T00:18:31.077Z,99.90
2018-09-26T00:21:00.114Z,99.90
2018-09-26T00:23:29.275Z,99.90
2018-09-26T00:25:58.057Z,99.90
2018-09-26T00:28:27.149Z,99.90
2018-09-26T00:30:56.452Z,99.90
2018-09-26T00:33:25.081Z,99.90
2018-09-26T00:35:53.045Z,99.90
2018-09-26T00:38:21.209Z,99.90
2018-09-26T00:40:49.091Z,99.90
2018-09-26T00:43:17.256Z,99.90
2018-09-26T00:45:45.233Z,99.90
2018-09-26T00:48:13.403Z,99.90
2018-09-26T00:50:41.499Z,99.90
2018-09-26T00:53:09.487Z,99.90
2018-09-26T00:55:37.710Z,99.90
2018-09-26T00:58:06.167Z,99.90
2018-09-26T01:00:34.390Z,99.90
2018-09-26T01:03:02.533Z,99.90
2018-09-26T01:05:30.313Z,99.90
2018-09-26T01:07:58.363Z,99.90
2018-09-26T01:10:26.444Z,99.90
2018-09-26T01:12:54.666Z,99.90
2018-09-26T01:15:22.816Z,99.90
2018-09-26T01:17:50.665Z,99.90
2018-09-26T01:20:18.785Z,99.90
2018-09-26T01:22:46.957Z,99.90
2018-09-26T01:25:15.016Z,99.90
2018-09-26T01:27:43.142Z,99.90
2018-09-26T01:30:11.082Z,99.90
2018-09-26T01:32:39.374Z,99.90
2018-09-26T01:35:07.585Z,99.90
2018-09-26T01:37:35.875Z,99.90
2018-09-26T01:40:04.241Z,99.90
2018-09-26T01:42:32.415Z,99.90
2018-09-26T01:45:00.467Z,99.90
2018-09-26T01:47:28.455Z,99.90
2018-09-26T01:49:56.664Z,99.90
2018-09-26T01:52:24.632Z,99.90
2018-09-26T01:54:52.689Z,99.90
2018-09-26T01:57:20.876Z,99.90
2018-09-26T01:59:49.012Z,99.90
2018-09-26T02:02:17.292Z,99.90
2018-09-26T02:04:45.849Z,99.90
2018-09-26T02:07:13.906Z,99.90
2018-09-26T02:09:42.102Z,99.90
2018-09-26T02:12:10.302Z,99.90
2018-09-26T02:14:38.157Z,99.90
2018-09-26T02:17:06.353Z,99.90
2018-09-26T02:19:34.316Z,99.90
2018-09-26T02:22:02.595Z,99.90
2018-09-26T02:24:31.055Z,99.90
2018-09-26T02:26:59.004Z,99.90
2018-09-26T02:29:26.910Z,99.90
2018-09-26T02:31:55.040Z,99.90
2018-09-26T02:34:23.063Z,99.90
2018-09-26T02:36:51.118Z,99.90
2018-09-26T02:39:19.169Z,99.90
2018-09-26T02:41:47.209Z,99.90
2018-09-26T02:44:15.393Z,99.90
2018-09-26T02:46:43.257Z,99.90
2018-09-26T02:49:11.978Z,99.90
2018-09-26T02:51:39.831Z,99.90
2018-09-26T02:54:08.624Z,99.90
2018-09-26T02:56:36.958Z,99.90
2018-09-26T02:59:05.112Z,99.90
2018-09-26T03:01:33.895Z,99.90
2018-09-26T03:04:02.219Z,99.90
2018-09-26T03:06:30.417Z,99.90
2018-09-26T03:08:58.481Z,99.90
2018-09-26T03:11:26.690Z,99.90
2018-09-26T03:13:54.806Z,99.90
2018-09-26T03:16:23.212Z,99.90
2018-09-26T03:18:51.352Z,99.90
2018-09-26T03:21:19.533Z,99.90
2018-09-26T03:23:47.641Z,99.90
2018-09-26T03:26:15.880Z,99.90
2018-09-26T03:28:43.995Z,99.90
2018-09-26T03:31:11.866Z,99.90
2018-09-26T03:33:39.752Z,99.90
2018-09-26T03:36:08.220Z,99.90
2018-09-26T03:38:36.469Z,99.90
2018-09-26T03:41:04.568Z,99.90
2018-09-26T03:43:33.568Z,99.90
2018-09-26T03:46:02.727Z,99.90
2018-09-26T03:48:31.720Z,99.90
2018-09-26T03:51:00.451Z,99.90
2018-09-26T03:53:29.525Z,99.90
2018-09-26T03:55:58.462Z,99.90
2018-09-26T03:58:27.560Z,99.90
2018-09-26T04:00:56.549Z,99.90
2018-09-26T04:03:25.674Z,99.90
2018-09-26T04:05:54.708Z,99.90
2018-09-26T04:08:23.481Z,99.90
2018-09-26T04:10:52.489Z,99.90
2018-09-26T04:13:21.305Z,99.90
2018-09-26T04:15:55.844Z,99.90
2018-09-26T04:18:25.902Z,99.90
2018-09-26T04:20:55.452Z,99.90
2018-09-26T04:23:24.284Z,99.90
2018-09-26T04:25:53.017Z,99.90
2018-09-26T04:28:22.088Z,99.90
2018-09-26T04:30:51.199Z,99.90
2018-09-26T04:33:20.095Z,99.90
2018-09-26T04:35:48.946Z,99.90
2018-09-26T04:38:17.871Z,99.90
2018-09-26T04:40:46.056Z,99.90
2018-09-26T04:43:15.002Z,99.90
2018-09-26T04:45:44.542Z,99.90
2018-09-26T04:48:13.474Z,99.90
2018-09-26T04:50:42.447Z,99.90
2018-09-26T04:53:11.323Z,99.90
2018-09-26T04:55:40.269Z,99.90
2018-09-26T04:58:09.344Z,99.90
2018-09-26T05:00:38.337Z,99.90
2018-09-26T05:03:07.271Z,99.90
2018-09-26T05:05:36.107Z,99.90
2018-09-26T05:08:04.930Z,99.90
2018-09-26T05:10:33.709Z,99.90
2018-09-26T05:13:02.528Z,99.90
2018-09-26T05:15:31.238Z,99.90
2018-09-26T05:18:00.156Z,99.90
2018-09-26T05:20:29.083Z,99.90
2018-09-26T05:22:57.915Z,99.90
2018-09-26T05:25:26.906Z,99.90
2018-09-26T05:27:55.748Z,99.90
2018-09-26T05:30:24.624Z,99.90
2018-09-26T05:32:53.510Z,99.90
2018-09-26T05:35:22.480Z,99.90
2018-09-26T05:37:51.501Z,99.90
2018-09-26T05:40:20.448Z,99.90
2018-09-26T05:42:49.403Z,99.90
2018-09-26T05:45:18.118Z,99.90
2018-09-26T05:47:47.070Z,99.90
2018-09-26T05:50:15.918Z,99.90
2018-09-26T05:52:44.489Z,99.90
2018-09-26T05:55:13.286Z,99.90
2018-09-26T05:57:42.049Z,99.90
2018-09-26T06:00:10.859Z,99.90
2018-09-26T06:02:39.555Z,99.90
2018-09-26T06:05:08.582Z,99.90
2018-09-26T06:07:37.367Z,99.90
2018-09-26T06:10:06.066Z,99.90
2018-09-26T06:12:34.985Z,99.90
2018-09-26T06:15:03.861Z,99.90
2018-09-26T06:17:32.539Z,99.90
2018-09-26T06:20:01.470Z,99.90
2018-09-26T06:22:30.395Z,99.90
2018-09-26T06:24:59.108Z,99.90
2018-09-26T06:27:28.032Z,99.90
2018-09-26T06:29:56.882Z,99.90
2018-09-26T06:32:25.810Z,99.90
2018-09-26T06:34:54.841Z,99.90
2018-09-26T06:37:23.738Z,99.90
2018-09-26T06:39:52.514Z,99.90
2018-09-26T06:42:21.446Z,99.90
2018-09-26T06:44:50.498Z,99.90
2018-09-26T06:47:19.269Z,99.90
2018-09-26T06:49:47.972Z,99.90
2018-09-26T06:52:16.678Z,99.90
2018-09-26T06:54:46.456Z,99.90
2018-09-26T06:57:15.343Z,99.90
2018-09-26T06:59:44.083Z,99.90
2018-09-26T07:02:12.680Z,99.90
2018-09-26T07:04:41.355Z,99.90
2018-09-26T07:07:10.151Z,99.90
2018-09-26T07:09:38.797Z,99.90
2018-09-26T07:12:07.700Z,99.90
2018-09-26T07:14:36.414Z,99.90
2018-09-26T07:17:05.355Z,99.90
2018-09-26T07:19:33.962Z,99.90
2018-09-26T07:22:02.636Z,99.90
2018-09-26T07:24:31.637Z,99.90
2018-09-26T07:27:00.273Z,99.90
2018-09-26T07:29:28.944Z,99.90
2018-09-26T07:31:57.713Z,99.90
2018-09-26T07:34:31.695Z,99.90
2018-09-26T07:37:00.835Z,99.90
2018-09-26T07:39:29.557Z,99.90
2018-09-26T07:41:58.282Z,99.90
2018-09-26T07:44:27.006Z,99.90
2018-09-26T07:46:55.648Z,99.90
2018-09-26T07:49:24.219Z,99.90
2018-09-26T07:51:53.212Z,99.90
2018-09-26T07:54:21.821Z,99.90
2018-09-26T07:56:50.843Z,99.90
2018-09-26T07:59:19.515Z,99.90
2018-09-26T08:01:48.369Z,99.90
2018-09-26T08:04:16.946Z,99.90
2018-09-26T08:06:45.591Z,99.90
2018-09-26T08:09:14.393Z,99.90
2018-09-26T08:11:43.106Z,99.90
2018-09-26T08:14:11.673Z,98.30
2018-09-26T08:16:40.431Z,98.70
2018-09-26T08:19:08.661Z,97.90
2018-09-26T08:21:36.532Z,97.40
2018-09-26T08:24:05.296Z,95.20
2018-09-26T08:26:34.185Z,94.10
2018-09-26T08:29:03.014Z,93.10
2018-09-26T08:31:31.922Z,91.70
2018-09-26T08:34:00.709Z,89.40
2018-09-26T08:36:29.196Z,85.60
2018-09-26T08:38:57.998Z,83.00
2018-09-26T08:41:26.904Z,81.90
2018-09-26T08:43:55.662Z,80.70
2018-09-26T08:46:24.195Z,80.30
2018-09-26T08:48:52.754Z,78.50
2018-09-26T08:51:21.374Z,78.00
2018-09-26T08:53:50.389Z,77.50
2018-09-26T08:56:18.983Z,76.20
2018-09-26T08:58:47.904Z,74.00
2018-09-26T09:01:21.928Z,72.40
2018-09-26T09:03:50.494Z,70.80
2018-09-26T09:06:19.386Z,70.80
2018-09-26T09:08:47.868Z,69.50
2018-09-26T09:11:16.683Z,69.20
2018-09-26T09:13:45.445Z,68.10
2018-09-26T09:16:14.080Z,68.40
2018-09-26T09:18:42.765Z,67.90
2018-09-26T09:21:11.429Z,67.90
2018-09-26T09:23:40.370Z,67.20
2018-09-26T09:26:09.142Z,66.50
2018-09-26T09:28:37.759Z,64.80
2018-09-26T09:31:06.852Z,64.30
2018-09-26T09:33:35.475Z,60.90
2018-09-26T09:36:04.114Z,61.10
2018-09-26T09:38:32.883Z,59.90
2018-09-26T09:41:01.712Z,64.30
2018-09-26T09:43:30.838Z,63.60
2018-09-26T09:45:59.531Z,66.10
2018-09-26T09:48:28.585Z,65.60
2018-09-26T09:50:58.320Z,63.30
2018-09-26T09:53:28.525Z,63.70
2018-09-26T09:55:57.802Z,59.90
2018-09-26T09:58:27.215Z,58.50
2018-09-26T10:01:02.044Z,58.10
2018-09-26T10:03:31.550Z,57.20
2018-09-26T10:06:00.781Z,56.80
2018-09-26T10:08:30.487Z,55.60
2018-09-26T10:10:59.959Z,55.70
2018-09-26T10:13:29.809Z,55.60
2018-09-26T10:15:59.103Z,54.80
2018-09-26T10:18:28.408Z,53.80
2018-09-26T10:20:57.713Z,53.60
2018-09-26T10:23:26.420Z,53.60
2018-09-26T10:25:55.994Z,53.30
2018-09-26T10:28:23.942Z,53.10
2018-09-26T10:30:52.546Z,53.30
2018-09-26T10:33:21.336Z,52.80
2018-09-26T10:35:50.254Z,52.40
2018-09-26T10:38:19.204Z,51.80
2018-09-26T10:40:47.978Z,51.30
2018-09-26T10:43:16.574Z,50.90
2018-09-26T10:45:45.228Z,50.60
2018-09-26T10:48:13.770Z,50.30
2018-09-26T10:50:42.456Z,50.30
2018-09-26T10:53:11.052Z,50.50
2018-09-26T10:55:39.731Z,50.30
2018-09-26T10:58:08.772Z,49.50
2018-09-26T11:00:37.363Z,49.50
2018-09-26T11:03:06.274Z,49.90
2018-09-26T11:05:34.925Z,50.00
2018-09-26T11:08:03.389Z,48.50
2018-09-26T11:10:32.066Z,47.60
2018-09-26T11:13:00.977Z,47.20
2018-09-26T11:15:29.793Z,46.90
2018-09-26T11:17:58.442Z,46.70
2018-09-26T11:20:27.382Z,45.40
2018-09-26T11:22:56.036Z,44.70
2018-09-26T11:25:25.728Z,45.10
2018-09-26T11:27:54.668Z,44.60
2018-09-26T11:30:23.365Z,45.30
2018-09-26T11:32:51.879Z,45.10
2018-09-26T11:35:20.780Z,44.30
2018-09-26T11:37:49.438Z,44.90
2018-09-26T11:40:18.229Z,45.20
2018-09-26T11:42:46.792Z,45.40
2018-09-26T11:45:15.678Z,45.40
2018-09-26T11:47:44.183Z,44.80
2018-09-26T11:50:12.904Z,44.40
2018-09-26T11:52:41.530Z,44.40
2018-09-26T11:55:10.276Z,44.70
2018-09-26T11:57:39.709Z,45.40
2018-09-26T12:00:08.601Z,45.60
2018-09-26T12:02:37.200Z,45.40
2018-09-26T12:05:05.875Z,45.60
2018-09-26T12:07:34.835Z,45.40
2018-09-26T12:10:03.891Z,43.80
2018-09-26T12:12:32.652Z,43.50
2018-09-26T12:15:01.471Z,44.10
2018-09-26T12:17:30.287Z,44.40
2018-09-26T12:19:59.107Z,44.30
2018-09-26T12:25:21.798Z,43.70
2018-09-26T12:27:50.579Z,43.60
2018-09-26T12:30:19.390Z,43.70
2018-09-26T12:32:48.258Z,42.90
2018-09-26T12:35:17.038Z,43.50
2018-09-26T12:37:45.827Z,44.20
2018-09-26T12:40:14.579Z,44.80
2018-09-26T12:42:43.325Z,45.20
2018-09-26T12:45:12.119Z,43.80
2018-09-26T12:47:40.891Z,43.70
2018-09-26T12:50:09.802Z,45.00
2018-09-26T12:52:38.256Z,44.30
2018-09-26T12:55:06.964Z,44.00
2018-09-26T12:57:35.619Z,45.30
2018-09-26T13:00:04.262Z,45.00
2018-09-26T13:02:32.968Z,44.80
2018-09-26T13:05:01.601Z,44.80
2018-09-26T13:07:31.176Z,44.90
2018-09-26T13:10:00.244Z,45.50
2018-09-26T13:12:28.961Z,45.40
2018-09-26T13:14:57.576Z,45.30
2018-09-26T13:17:26.386Z,44.90
2018-09-26T13:19:55.337Z,45.10
2018-09-26T13:22:24.859Z,45.50
2018-09-26T13:24:53.683Z,45.60
2018-09-26T13:27:22.437Z,45.50
2018-09-26T13:29:51.235Z,46.00
2018-09-26T13:32:20.001Z,46.10
2018-09-26T13:34:48.646Z,45.80
2018-09-26T13:37:17.246Z,45.80
2018-09-26T13:39:45.963Z,45.60
2018-09-26T13:42:14.671Z,45.40
2018-09-26T13:44:43.603Z,45.50
2018-09-26T13:47:12.313Z,45.70
2018-09-26T13:49:40.939Z,45.60
2018-09-26T13:52:09.590Z,45.50
2018-09-26T13:54:38.231Z,46.20
2018-09-26T13:57:07.128Z,46.30
2018-09-26T13:59:35.890Z,46.20
2018-09-26T14:02:04.621Z,46.20
2018-09-26T14:04:33.288Z,45.90
2018-09-26T14:07:02.078Z,45.70
2018-09-26T14:09:30.699Z,46.40
2018-09-26T14:11:59.533Z,46.80
2018-09-26T14:14:28.324Z,46.70
2018-09-26T14:16:56.913Z,46.60
2018-09-26T14:19:26.475Z,46.30
2018-09-26T14:21:55.890Z,46.60
2018-09-26T14:24:25.142Z,47.10
2018-09-26T14:26:54.702Z,47.30
2018-09-26T14:29:25.051Z,47.10
2018-09-26T14:31:54.431Z,47.00
2018-09-26T14:34:24.040Z,47.40
2018-09-26T14:36:54.391Z,47.60
2018-09-26T14:39:24.123Z,47.80
2018-09-26T14:41:53.675Z,47.60
2018-09-26T14:44:23.259Z,47.80
2018-09-26T14:46:52.735Z,48.10
2018-09-26T14:49:22.651Z,48.40
2018-09-26T14:51:52.917Z,48.60
2018-09-26T14:54:22.758Z,48.70
2018-09-26T14:56:52.612Z,48.80
2018-09-26T14:59:22.009Z,49.20
2018-09-26T15:01:51.892Z,49.20
2018-09-26T15:04:21.456Z,49.50
2018-09-26T15:06:51.051Z,49.40
2018-09-26T15:09:21.072Z,49.90
2018-09-26T15:11:50.517Z,50.10
2018-09-26T15:14:20.431Z,50.10
2018-09-26T15:16:49.070Z,50.50
2018-09-26T15:19:17.741Z,50.60
2018-09-26T15:21:46.294Z,50.90
2018-09-26T15:24:15.013Z,51.00
2018-09-26T15:26:43.594Z,51.40
2018-09-26T15:29:12.139Z,51.50
2018-09-26T15:31:40.821Z,51.60
2018-09-26T15:34:09.702Z,52.10
2018-09-26T15:36:38.455Z,52.40
2018-09-26T15:39:09.601Z,52.80
2018-09-26T15:41:38.620Z,52.90
2018-09-26T15:44:07.244Z,53.00
2018-09-26T15:46:35.881Z,53.30
2018-09-26T15:49:04.949Z,53.50
2018-09-26T15:51:33.670Z,53.70
2018-09-26T15:54:02.340Z,54.00
2018-09-26T15:56:31.037Z,54.50
2018-09-26T15:59:00.379Z,54.50
2018-09-26T16:01:28.952Z,54.40
2018-09-26T16:03:57.578Z,54.70
2018-09-26T16:06:26.513Z,54.90
2018-09-26T16:08:55.173Z,55.30
2018-09-26T16:11:23.812Z,55.60
2018-09-26T16:13:53.795Z,55.80
2018-09-26T16:16:23.460Z,56.20
2018-09-26T16:18:55.640Z,56.50
2018-09-26T16:21:24.210Z,56.80
2018-09-26T16:23:53.182Z,57.10
2018-09-26T16:26:23.742Z,57.40
2018-09-26T16:28:52.273Z,58.20
2018-09-26T16:31:20.981Z,58.10
2018-09-26T16:33:49.595Z,58.40
2018-09-26T16:36:18.244Z,58.60
2018-09-26T16:38:46.720Z,59.00
2018-09-26T16:41:15.404Z,59.20
2018-09-26T16:43:43.998Z,59.70
2018-09-26T16:46:12.597Z,59.70
2018-09-26T16:48:42.986Z,60.20
2018-09-26T16:51:11.629Z,60.30
2018-09-26T16:53:40.420Z,60.70
2018-09-26T16:56:09.023Z,60.50
2018-09-26T16:58:37.710Z,61.00
2018-09-26T17:01:10.929Z,60.70
2018-09-26T17:03:40.370Z,61.00
2018-09-26T17:06:09.149Z,61.30
2018-09-26T17:08:37.760Z,61.70
2018-09-26T17:11:06.497Z,62.20
2018-09-26T17:13:35.563Z,62.20
2018-09-26T17:16:06.036Z,62.60
2018-09-26T17:18:34.738Z,63.10
2018-09-26T17:21:04.082Z,64.40
2018-09-26T17:23:32.619Z,64.10
2018-09-26T17:26:01.240Z,64.10
2018-09-26T17:28:29.946Z,64.00
2018-09-26T17:30:58.496Z,64.10
2018-09-26T17:33:27.076Z,64.50
2018-09-26T17:35:55.732Z,64.60
2018-09-26T17:38:24.369Z,65.50
2018-09-26T17:40:52.953Z,66.60
2018-09-26T17:43:21.638Z,66.60
2018-09-26T17:45:50.158Z,67.20
2018-09-26T17:48:18.838Z,67.60
2018-09-26T17:50:47.469Z,67.80
2018-09-26T17:53:16.188Z,68.00
2018-09-26T17:55:44.819Z,67.90
2018-09-26T17:58:13.399Z,68.10
2018-09-26T18:00:42.227Z,68.40
2018-09-26T18:03:10.871Z,68.70
2018-09-26T18:05:39.471Z,69.00
2018-09-26T18:08:08.966Z,69.40
2018-09-26T18:10:37.776Z,69.60
2018-09-26T18:13:06.894Z,69.60
2018-09-26T18:15:35.442Z,69.90
2018-09-26T18:18:04.120Z,70.10
2018-09-26T18:20:32.874Z,70.40
2018-09-26T18:23:01.403Z,71.20
2018-09-26T18:25:30.009Z,71.10
2018-09-26T18:27:58.887Z,71.20
2018-09-26T18:30:27.698Z,71.30
2018-09-26T18:32:56.393Z,71.70
2018-09-26T18:35:25.180Z,71.70
2018-09-26T18:37:54.114Z,71.90
2018-09-26T18:40:22.986Z,72.10
2018-09-26T18:42:51.728Z,72.40
2018-09-26T18:45:20.526Z,73.00
2018-09-26T18:47:49.710Z,73.00
2018-09-26T18:50:19.160Z,73.20
2018-09-26T18:52:48.476Z,73.20
2018-09-26T18:55:18.530Z,72.90
2018-09-26T18:57:49.199Z,73.10
2018-09-26T19:00:18.320Z,73.20
2018-09-26T19:02:52.315Z,73.60
2018-09-26T19:05:22.813Z,73.70
2018-09-26T19:07:52.579Z,73.40
2018-09-26T19:10:21.413Z,74.10
2018-09-26T19:12:50.096Z,73.20
2018-09-26T19:15:19.370Z,72.50
2018-09-26T19:17:48.081Z,71.70
2018-09-26T19:20:22.494Z,71.80
2018-09-26T19:22:52.556Z,71.90
2018-09-26T19:25:26.796Z,71.40
2018-09-26T19:27:55.581Z,71.10
2018-09-26T19:30:24.357Z,70.70
2018-09-26T19:32:52.971Z,70.80
2018-09-26T19:35:21.736Z,69.10
2018-09-26T19:37:53.277Z,69.00
2018-09-26T19:40:23.550Z,68.20
2018-09-26T19:42:52.729Z,67.70
2018-09-26T19:45:23.103Z,66.90
2018-09-26T19:47:53.462Z,66.10
2018-09-26T19:50:22.968Z,66.30
2018-09-26T19:52:53.029Z,65.60
2018-09-26T19:55:22.625Z,65.70
2018-09-26T19:57:53.050Z,64.80
2018-09-26T20:00:23.096Z,65.00
2018-09-26T20:02:52.488Z,64.70
2018-09-26T20:05:22.312Z,64.40
2018-09-26T20:07:55.408Z,64.30
2018-09-26T20:10:36.977Z,63.40
2018-09-26T20:16:04.961Z,63.40
2018-09-26T20:18:34.761Z,63.20
2018-09-26T20:21:04.222Z,63.00
2018-09-26T20:23:33.043Z,61.50
2018-09-26T20:26:03.119Z,60.80
2018-09-26T20:28:33.206Z,60.60
2018-09-26T20:31:04.860Z,60.60
2018-09-26T20:33:34.749Z,60.00
2018-09-26T20:36:04.982Z,59.80
2018-09-26T20:38:34.047Z,59.70
2018-09-26T20:41:03.579Z,59.30
2018-09-26T20:43:33.570Z,59.40
2018-09-26T20:51:44.051Z,59.50
2018-09-26T20:57:06.291Z,59.60
2018-09-26T20:59:35.373Z,59.70
2018-09-26T21:02:05.404Z,59.70
2018-09-26T21:04:34.785Z,59.70
2018-09-26T21:07:15.067Z,60.00
2018-09-26T21:09:44.182Z,60.00
2018-09-26T21:12:13.720Z,60.30
2018-09-26T21:14:42.871Z,60.30
2018-09-26T21:17:11.794Z,59.90
2018-09-26T21:19:42.351Z,59.80
2018-09-26T21:22:12.938Z,60.00
2018-09-26T21:24:44.747Z,60.20
2018-09-26T21:29:55.480Z,59.60
2018-09-26T21:35:16.815Z,59.30
2018-09-26T21:37:45.585Z,59.50
2018-09-26T21:40:19.649Z,58.90
2018-09-26T21:42:48.345Z,58.90
2018-09-26T21:45:17.140Z,58.80
2018-09-26T21:47:45.818Z,58.80
2018-09-26T21:53:07.260Z,59.10
2018-09-26T21:55:35.990Z,59.30
2018-09-26T21:58:05.278Z,59.40
2018-09-26T22:00:33.990Z,59.30
2018-09-26T22:03:02.681Z,59.50
2018-09-26T22:05:31.369Z,60.00
2018-09-26T22:08:00.063Z,60.50
2018-09-26T22:10:28.808Z,60.80
2018-09-26T22:12:57.461Z,61.00
2018-09-26T22:15:26.129Z,61.60
2018-09-26T22:17:55.219Z,61.90
2018-09-26T22:20:23.885Z,62.40
2018-09-26T22:22:52.567Z,63.00
2018-09-26T22:25:21.263Z,63.30
2018-09-26T22:27:50.015Z,63.70
2018-09-26T22:30:18.703Z,64.10
2018-09-26T22:32:47.370Z,64.60
2018-09-26T22:35:16.096Z,64.80
2018-09-26T22:37:44.869Z,65.10
2018-09-26T22:40:13.578Z,65.50
2018-09-26T22:42:42.389Z,66.20
2018-09-26T22:45:11.106Z,66.70
2018-09-26T22:47:39.927Z,67.00
2018-09-26T22:50:08.634Z,72.90
2018-09-26T22:52:37.348Z,72.00
2018-09-26T22:55:06.071Z,80.60
2018-09-26T22:57:34.838Z,68.10
2018-09-26T23:00:03.633Z,68.20
2018-09-26T23:02:32.318Z,68.40
2018-09-26T23:05:00.993Z,68.90
2018-09-26T23:07:29.637Z,70.50
2018-09-26T23:09:58.279Z,70.90
2018-09-26T23:12:26.899Z,71.00
2018-09-26T23:14:55.562Z,70.90
2018-09-26T23:17:24.363Z,71.00
2018-09-26T23:19:53.224Z,71.30
2018-09-26T23:22:21.089Z,71.70
2018-09-26T23:24:48.998Z,73.00
2018-09-26T23:27:16.927Z,72.80
2018-09-26T23:29:45.581Z,74.80
2018-09-26T23:32:14.362Z,72.80
2018-09-26T23:34:43.072Z,73.70
2018-09-26T23:37:11.824Z,75.50
2018-09-26T23:39:40.035Z,72.50
2018-09-26T23:42:08.762Z,73.40
2018-09-26T23:44:37.460Z,73.50
2018-09-26T23:47:06.226Z,74.60
2018-09-26T23:49:35.002Z,73.60
2018-09-26T23:52:03.770Z,73.70
2018-09-26T23:54:32.600Z,73.70
2018-09-26T23:57:01.294Z,73.70
2018-09-26T23:59:29.958Z,74.20
